sensor_id;sensor_type;location;lat;lon;timestamp;pressure;altitude;pressure_sealevel;temperature
68012;BMP180;54794;48.348;7.878;2023-02-11T00:01:23;101230.00;;;1.10
68012;BMP180;54794;48.348;7.878;2023-02-11T00:03:51;101230.00;;;0.90
68012;BMP180;54794;48.348;7.878;2023-02-11T00:06:18;101230.00;;;1.00
68012;BMP180;54794;48.348;7.878;2023-02-11T00:08:46;101217.00;;;1.10
68012;BMP180;54794;48.348;7.878;2023-02-11T00:11:16;101214.00;;;1.10
68012;BMP180;54794;48.348;7.878;2023-02-11T00:13:44;101223.00;;;1.20
68012;BMP180;54794;48.348;7.878;2023-02-11T00:16:16;101211.00;;;1.20
68012;BMP180;54794;48.348;7.878;2023-02-11T00:18:43;101209.00;;;1.10
68012;BMP180;54794;48.348;7.878;2023-02-11T00:21:18;101207.00;;;1.00
68012;BMP180;54794;48.348;7.878;2023-02-11T00:23:46;101206.00;;;0.90
68012;BMP180;54794;48.348;7.878;2023-02-11T00:26:21;101208.00;;;1.10
68012;BMP180;54794;48.348;7.878;2023-02-11T00:28:49;101214.00;;;1.10
68012;BMP180;54794;48.348;7.878;2023-02-11T00:31:19;101211.00;;;0.80
68012;BMP180;54794;48.348;7.878;2023-02-11T00:33:46;101214.00;;;1.20
68012;BMP180;54794;48.348;7.878;2023-02-11T00:36:18;101224.00;;;1.30
68012;BMP180;54794;48.348;7.878;2023-02-11T00:38:47;101230.00;;;1.20
68012;BMP180;54794;48.348;7.878;2023-02-11T00:41:15;101228.00;;;1.30
68012;BMP180;54794;48.348;7.878;2023-02-11T00:43:42;101225.00;;;1.00
68012;BMP180;54794;48.348;7.878;2023-02-11T00:46:10;101233.00;;;1.30
68012;BMP180;54794;48.348;7.878;2023-02-11T00:48:37;101228.00;;;1.20
68012;BMP180;54794;48.348;7.878;2023-02-11T00:51:05;101232.00;;;0.90
68012;BMP180;54794;48.348;7.878;2023-02-11T00:53:33;101230.00;;;1.00
68012;BMP180;54794;48.348;7.878;2023-02-11T00:56:00;101231.00;;;0.80
68012;BMP180;54794;48.348;7.878;2023-02-11T00:58:27;101237.00;;;1.00
68012;BMP180;54794;48.348;7.878;2023-02-11T01:00:55;101238.00;;;0.90
68012;BMP180;54794;48.348;7.878;2023-02-11T01:03:22;101232.00;;;0.90
68012;BMP180;54794;48.348;7.878;2023-02-11T01:05:49;101241.00;;;0.80
68012;BMP180;54794;48.348;7.878;2023-02-11T01:08:16;101229.00;;;0.90
68012;BMP180;54794;48.348;7.878;2023-02-11T01:10:43;101231.00;;;0.80
68012;BMP180;54794;48.348;7.878;2023-02-11T01:13:10;101228.00;;;1.00
68012;BMP180;54794;48.348;7.878;2023-02-11T01:15:37;101217.00;;;1.10
68012;BMP180;54794;48.348;7.878;2023-02-11T01:18:05;101217.00;;;1.20
68012;BMP180;54794;48.348;7.878;2023-02-11T01:20:32;101220.00;;;1.10
68012;BMP180;54794;48.348;7.878;2023-02-11T01:22:59;101222.00;;;1.30
68012;BMP180;54794;48.348;7.878;2023-02-11T01:25:25;101210.00;;;1.30
68012;BMP180;54794;48.348;7.878;2023-02-11T01:27:52;101211.00;;;1.30
68012;BMP180;54794;48.348;7.878;2023-02-11T01:30:19;101210.00;;;1.20
68012;BMP180;54794;48.348;7.878;2023-02-11T01:32:46;101205.00;;;1.40
68012;BMP180;54794;48.348;7.878;2023-02-11T01:35:13;101205.00;;;1.20
68012;BMP180;54794;48.348;7.878;2023-02-11T01:37:40;101204.00;;;1.30
68012;BMP180;54794;48.348;7.878;2023-02-11T01:40:14;101199.00;;;1.30
68012;BMP180;54794;48.348;7.878;2023-02-11T01:42:42;101206.00;;;1.20
68012;BMP180;54794;48.348;7.878;2023-02-11T01:48:12;101205.00;;;1.30
68012;BMP180;54794;48.348;7.878;2023-02-11T01:50:43;101203.00;;;1.40
68012;BMP180;54794;48.348;7.878;2023-02-11T01:53:11;101197.00;;;1.10
68012;BMP180;54794;48.348;7.878;2023-02-11T01:55:57;101187.00;;;1.30
68012;BMP180;54794;48.348;7.878;2023-02-11T01:58:45;101182.00;;;1.20
68012;BMP180;54794;48.348;7.878;2023-02-11T02:01:18;101180.00;;;1.10
68012;BMP180;54794;48.348;7.878;2023-02-11T02:03:51;101184.00;;;1.10
68012;BMP180;54794;48.348;7.878;2023-02-11T02:06:45;101181.00;;;1.20
68012;BMP180;54794;48.348;7.878;2023-02-11T02:09:28;101179.00;;;1.20
68012;BMP180;54794;48.348;7.878;2023-02-11T02:11:56;101171.00;;;1.10
68012;BMP180;54794;48.348;7.878;2023-02-11T02:14:23;101171.00;;;1.20
68012;BMP180;54794;48.348;7.878;2023-02-11T02:16:50;101167.00;;;1.00
68012;BMP180;54794;48.348;7.878;2023-02-11T02:19:57;101167.00;;;1.00
68012;BMP180;54794;48.348;7.878;2023-02-11T02:23:06;101160.00;;;1.00
68012;BMP180;54794;48.348;7.878;2023-02-11T02:26:06;101171.00;;;0.80
68012;BMP180;54794;48.348;7.878;2023-02-11T02:29:13;101151.00;;;0.90
68012;BMP180;54794;48.348;7.878;2023-02-11T02:32:19;101159.00;;;0.90
68012;BMP180;54794;48.348;7.878;2023-02-11T02:35:08;101160.00;;;0.80
68012;BMP180;54794;48.348;7.878;2023-02-11T02:37:51;101144.00;;;1.00
68012;BMP180;54794;48.348;7.878;2023-02-11T02:40:29;101145.00;;;0.80
68012;BMP180;54794;48.348;7.878;2023-02-11T02:42:58;101137.00;;;0.70
68012;BMP180;54794;48.348;7.878;2023-02-11T02:45:27;101137.00;;;0.80
68012;BMP180;54794;48.348;7.878;2023-02-11T02:47:54;101130.00;;;0.80
68012;BMP180;54794;48.348;7.878;2023-02-11T02:50:27;101128.00;;;0.70
68012;BMP180;54794;48.348;7.878;2023-02-11T02:53:23;101129.00;;;0.70
68012;BMP180;54794;48.348;7.878;2023-02-11T02:56:10;101126.00;;;1.00
68012;BMP180;54794;48.348;7.878;2023-02-11T03:05:05;101139.00;;;0.50
68012;BMP180;54794;48.348;7.878;2023-02-11T03:08:01;101146.00;;;0.40
68012;BMP180;54794;48.348;7.878;2023-02-11T03:10:42;101145.00;;;0.10
68012;BMP180;54794;48.348;7.878;2023-02-11T03:13:13;101123.00;;;0.50
68012;BMP180;54794;48.348;7.878;2023-02-11T03:15:48;101135.00;;;0.50
68012;BMP180;54794;48.348;7.878;2023-02-11T03:18:21;101150.00;;;0.30
68012;BMP180;54794;48.348;7.878;2023-02-11T03:20:53;101143.00;;;0.30
68012;BMP180;54794;48.348;7.878;2023-02-11T03:23:30;101127.00;;;0.40
68012;BMP180;54794;48.348;7.878;2023-02-11T03:26:13;101134.00;;;0.60
68012;BMP180;54794;48.348;7.878;2023-02-11T03:28:59;101143.00;;;0.50
68012;BMP180;54794;48.348;7.878;2023-02-11T03:34:28;101133.00;;;0.40
68012;BMP180;54794;48.348;7.878;2023-02-11T03:37:04;101137.00;;;0.50
68012;BMP180;54794;48.348;7.878;2023-02-11T03:39:55;101127.00;;;0.20
68012;BMP180;54794;48.348;7.878;2023-02-11T03:42:31;101136.00;;;0.40
68012;BMP180;54794;48.348;7.878;2023-02-11T03:45:12;101147.00;;;0.40
68012;BMP180;54794;48.348;7.878;2023-02-11T03:47:47;101140.00;;;0.20
68012;BMP180;54794;48.348;7.878;2023-02-11T03:50:17;101145.00;;;0.30
68012;BMP180;54794;48.348;7.878;2023-02-11T03:52:48;101134.00;;;0.60
68012;BMP180;54794;48.348;7.878;2023-02-11T03:55:18;101135.00;;;0.50
68012;BMP180;54794;48.348;7.878;2023-02-11T03:57:46;101134.00;;;0.50
68012;BMP180;54794;48.348;7.878;2023-02-11T04:00:13;101130.00;;;0.60
68012;BMP180;54794;48.348;7.878;2023-02-11T04:02:42;101142.00;;;0.50
68012;BMP180;54794;48.348;7.878;2023-02-11T04:05:13;101130.00;;;0.60
68012;BMP180;54794;48.348;7.878;2023-02-11T04:07:40;101148.00;;;0.80
68012;BMP180;54794;48.348;7.878;2023-02-11T04:10:07;101152.00;;;0.50
68012;BMP180;54794;48.348;7.878;2023-02-11T04:12:34;101153.00;;;0.50
68012;BMP180;54794;48.348;7.878;2023-02-11T04:15:02;101156.00;;;0.60
68012;BMP180;54794;48.348;7.878;2023-02-11T04:17:29;101163.00;;;0.70
68012;BMP180;54794;48.348;7.878;2023-02-11T04:19:55;101154.00;;;0.50
68012;BMP180;54794;48.348;7.878;2023-02-11T04:22:22;101155.00;;;0.70
68012;BMP180;54794;48.348;7.878;2023-02-11T04:24:49;101151.00;;;0.60
68012;BMP180;54794;48.348;7.878;2023-02-11T04:27:16;101158.00;;;0.50
68012;BMP180;54794;48.348;7.878;2023-02-11T04:29:43;101150.00;;;0.50
68012;BMP180;54794;48.348;7.878;2023-02-11T04:32:11;101140.00;;;0.70
68012;BMP180;54794;48.348;7.878;2023-02-11T04:34:38;101126.00;;;0.80
68012;BMP180;54794;48.348;7.878;2023-02-11T04:37:05;101123.00;;;0.60
68012;BMP180;54794;48.348;7.878;2023-02-11T04:39:32;101111.00;;;0.50
68012;BMP180;54794;48.348;7.878;2023-02-11T04:41:59;101120.00;;;0.70
68012;BMP180;54794;48.348;7.878;2023-02-11T04:44:26;101134.00;;;0.40
68012;BMP180;54794;48.348;7.878;2023-02-11T04:46:53;101125.00;;;0.50
68012;BMP180;54794;48.348;7.878;2023-02-11T04:49:20;101130.00;;;0.70
68012;BMP180;54794;48.348;7.878;2023-02-11T04:51:47;101145.00;;;0.80
68012;BMP180;54794;48.348;7.878;2023-02-11T04:54:15;101136.00;;;1.00
68012;BMP180;54794;48.348;7.878;2023-02-11T04:56:43;101143.00;;;1.00
68012;BMP180;54794;48.348;7.878;2023-02-11T04:59:09;101145.00;;;0.50
68012;BMP180;54794;48.348;7.878;2023-02-11T05:01:39;101155.00;;;0.60
68012;BMP180;54794;48.348;7.878;2023-02-11T05:04:06;101159.00;;;0.50
68012;BMP180;54794;48.348;7.878;2023-02-11T05:06:33;101157.00;;;0.40
68012;BMP180;54794;48.348;7.878;2023-02-11T05:09:00;101158.00;;;0.50
68012;BMP180;54794;48.348;7.878;2023-02-11T05:11:28;101150.00;;;0.10
68012;BMP180;54794;48.348;7.878;2023-02-11T05:13:55;101150.00;;;0.50
68012;BMP180;54794;48.348;7.878;2023-02-11T05:16:22;101146.00;;;0.50
68012;BMP180;54794;48.348;7.878;2023-02-11T05:18:49;101144.00;;;0.40
68012;BMP180;54794;48.348;7.878;2023-02-11T05:21:18;101140.00;;;0.50
68012;BMP180;54794;48.348;7.878;2023-02-11T05:23:46;101132.00;;;0.60
68012;BMP180;54794;48.348;7.878;2023-02-11T05:26:13;101138.00;;;0.70
68012;BMP180;54794;48.348;7.878;2023-02-11T05:28:41;101136.00;;;0.60
68012;BMP180;54794;48.348;7.878;2023-02-11T05:31:09;101140.00;;;0.50
68012;BMP180;54794;48.348;7.878;2023-02-11T05:33:36;101124.00;;;0.40
68012;BMP180;54794;48.348;7.878;2023-02-11T05:36:08;101118.00;;;0.50
68012;BMP180;54794;48.348;7.878;2023-02-11T05:38:37;101121.00;;;0.60
68012;BMP180;54794;48.348;7.878;2023-02-11T05:41:05;101107.00;;;0.70
68012;BMP180;54794;48.348;7.878;2023-02-11T05:43:32;101113.00;;;0.40
68012;BMP180;54794;48.348;7.878;2023-02-11T05:46:02;101122.00;;;0.10
68012;BMP180;54794;48.348;7.878;2023-02-11T05:48:30;101119.00;;;0.20
68012;BMP180;54794;48.348;7.878;2023-02-11T05:50:57;101109.00;;;0.50
68012;BMP180;54794;48.348;7.878;2023-02-11T05:53:24;101111.00;;;0.60
68012;BMP180;54794;48.348;7.878;2023-02-11T05:55:51;101110.00;;;0.40
68012;BMP180;54794;48.348;7.878;2023-02-11T05:58:18;101109.00;;;0.40
68012;BMP180;54794;48.348;7.878;2023-02-11T06:00:45;101106.00;;;0.30
68012;BMP180;54794;48.348;7.878;2023-02-11T06:03:12;101104.00;;;0.50
68012;BMP180;54794;48.348;7.878;2023-02-11T06:05:39;101085.00;;;0.60
68012;BMP180;54794;48.348;7.878;2023-02-11T06:08:06;101099.00;;;0.70
68012;BMP180;54794;48.348;7.878;2023-02-11T06:10:32;101106.00;;;0.60
68012;BMP180;54794;48.348;7.878;2023-02-11T06:13:01;101088.00;;;0.50
68012;BMP180;54794;48.348;7.878;2023-02-11T06:15:28;101088.00;;;0.80
68012;BMP180;54794;48.348;7.878;2023-02-11T06:17:55;101091.00;;;0.70
68012;BMP180;54794;48.348;7.878;2023-02-11T06:20:22;101095.00;;;0.60
68012;BMP180;54794;48.348;7.878;2023-02-11T06:22:48;101110.00;;;0.60
68012;BMP180;54794;48.348;7.878;2023-02-11T06:25:15;101101.00;;;0.50
68012;BMP180;54794;48.348;7.878;2023-02-11T06:27:43;101084.00;;;0.60
68012;BMP180;54794;48.348;7.878;2023-02-11T06:30:10;101071.00;;;0.60
68012;BMP180;54794;48.348;7.878;2023-02-11T06:32:37;101068.00;;;0.50
68012;BMP180;54794;48.348;7.878;2023-02-11T06:35:12;101054.00;;;0.50
68012;BMP180;54794;48.348;7.878;2023-02-11T06:37:40;101059.00;;;0.40
68012;BMP180;54794;48.348;7.878;2023-02-11T06:40:08;101049.00;;;0.50
68012;BMP180;54794;48.348;7.878;2023-02-11T06:42:35;101053.00;;;0.50
68012;BMP180;54794;48.348;7.878;2023-02-11T06:45:05;101057.00;;;0.50
68012;BMP180;54794;48.348;7.878;2023-02-11T06:47:34;101071.00;;;0.60
68012;BMP180;54794;48.348;7.878;2023-02-11T06:50:02;101086.00;;;0.60
68012;BMP180;54794;48.348;7.878;2023-02-11T06:52:29;101082.00;;;0.70
68012;BMP180;54794;48.348;7.878;2023-02-11T06:54:55;101079.00;;;0.70
68012;BMP180;54794;48.348;7.878;2023-02-11T06:57:22;101102.00;;;0.70
68012;BMP180;54794;48.348;7.878;2023-02-11T06:59:50;101129.00;;;0.50
68012;BMP180;54794;48.348;7.878;2023-02-11T07:02:17;101123.00;;;0.70
68012;BMP180;54794;48.348;7.878;2023-02-11T07:04:46;101144.00;;;0.60
68012;BMP180;54794;48.348;7.878;2023-02-11T07:07:14;101155.00;;;0.80
68012;BMP180;54794;48.348;7.878;2023-02-11T07:09:41;101157.00;;;0.70
68012;BMP180;54794;48.348;7.878;2023-02-11T07:12:09;101148.00;;;0.70
68012;BMP180;54794;48.348;7.878;2023-02-11T07:14:37;101147.00;;;0.80
68012;BMP180;54794;48.348;7.878;2023-02-11T07:17:04;101148.00;;;1.00
68012;BMP180;54794;48.348;7.878;2023-02-11T07:19:31;101143.00;;;1.30
68012;BMP180;54794;48.348;7.878;2023-02-11T07:21:58;101136.00;;;1.40
68012;BMP180;54794;48.348;7.878;2023-02-11T07:24:28;101136.00;;;1.50
68012;BMP180;54794;48.348;7.878;2023-02-11T07:26:55;101130.00;;;1.40
68012;BMP180;54794;48.348;7.878;2023-02-11T07:29:22;101117.00;;;1.40
68012;BMP180;54794;48.348;7.878;2023-02-11T07:32:02;101123.00;;;1.50
68012;BMP180;54794;48.348;7.878;2023-02-11T07:34:34;101116.00;;;1.60
68012;BMP180;54794;48.348;7.878;2023-02-11T07:37:20;101122.00;;;1.50
68012;BMP180;54794;48.348;7.878;2023-02-11T07:40:11;101117.00;;;1.60
68012;BMP180;54794;48.348;7.878;2023-02-11T07:42:38;101124.00;;;1.60
68012;BMP180;54794;48.348;7.878;2023-02-11T07:45:10;101128.00;;;1.60
68012;BMP180;54794;48.348;7.878;2023-02-11T07:47:45;101135.00;;;1.60
68012;BMP180;54794;48.348;7.878;2023-02-11T07:50:16;101137.00;;;1.60
68012;BMP180;54794;48.348;7.878;2023-02-11T07:52:43;101132.00;;;1.70
68012;BMP180;54794;48.348;7.878;2023-02-11T07:55:12;101134.00;;;1.70
68012;BMP180;54794;48.348;7.878;2023-02-11T07:57:46;101132.00;;;1.60
68012;BMP180;54794;48.348;7.878;2023-02-11T08:00:20;101128.00;;;1.70
68012;BMP180;54794;48.348;7.878;2023-02-11T08:02:58;101123.00;;;1.70
68012;BMP180;54794;48.348;7.878;2023-02-11T08:10:01;101135.00;;;1.50
68012;BMP180;54794;48.348;7.878;2023-02-11T08:12:38;101138.00;;;1.60
68012;BMP180;54794;48.348;7.878;2023-02-11T08:18:40;101124.00;;;1.60
68012;BMP180;54794;48.348;7.878;2023-02-11T08:21:15;101125.00;;;1.60
68012;BMP180;54794;48.348;7.878;2023-02-11T08:23:52;101132.00;;;1.80
68012;BMP180;54794;48.348;7.878;2023-02-11T08:26:26;101136.00;;;1.70
68012;BMP180;54794;48.348;7.878;2023-02-11T08:28:55;101137.00;;;1.90
68012;BMP180;54794;48.348;7.878;2023-02-11T08:31:29;101144.00;;;1.90
68012;BMP180;54794;48.348;7.878;2023-02-11T08:33:56;101139.00;;;1.70
68012;BMP180;54794;48.348;7.878;2023-02-11T08:36:32;101138.00;;;1.70
68012;BMP180;54794;48.348;7.878;2023-02-11T08:39:05;101128.00;;;1.80
68012;BMP180;54794;48.348;7.878;2023-02-11T08:41:51;101138.00;;;1.90
68012;BMP180;54794;48.348;7.878;2023-02-11T08:44:20;101140.00;;;1.80
68012;BMP180;54794;48.348;7.878;2023-02-11T08:46:49;101148.00;;;1.80
68012;BMP180;54794;48.348;7.878;2023-02-11T08:49:17;101147.00;;;1.90
68012;BMP180;54794;48.348;7.878;2023-02-11T08:51:44;101136.00;;;2.10
68012;BMP180;54794;48.348;7.878;2023-02-11T08:54:12;101143.00;;;2.00
68012;BMP180;54794;48.348;7.878;2023-02-11T08:56:40;101138.00;;;2.10
68012;BMP180;54794;48.348;7.878;2023-02-11T08:59:08;101154.00;;;2.40
68012;BMP180;54794;48.348;7.878;2023-02-11T09:01:36;101150.00;;;2.50
68012;BMP180;54794;48.348;7.878;2023-02-11T09:04:03;101144.00;;;2.50
68012;BMP180;54794;48.348;7.878;2023-02-11T09:06:31;101150.00;;;2.70
68012;BMP180;54794;48.348;7.878;2023-02-11T09:08:58;101151.00;;;2.50
68012;BMP180;54794;48.348;7.878;2023-02-11T09:11:30;101152.00;;;2.80
68012;BMP180;54794;48.348;7.878;2023-02-11T09:13:59;101147.00;;;2.90
68012;BMP180;54794;48.348;7.878;2023-02-11T09:16:29;101145.00;;;3.00
68012;BMP180;54794;48.348;7.878;2023-02-11T09:18:58;101143.00;;;2.90
68012;BMP180;54794;48.348;7.878;2023-02-11T09:21:27;101147.00;;;3.10
68012;BMP180;54794;48.348;7.878;2023-02-11T09:23:54;101153.00;;;3.10
68012;BMP180;54794;48.348;7.878;2023-02-11T09:26:31;101145.00;;;3.20
68012;BMP180;54794;48.348;7.878;2023-02-11T09:28:59;101144.00;;;3.30
68012;BMP180;54794;48.348;7.878;2023-02-11T09:31:29;101144.00;;;3.50
68012;BMP180;54794;48.348;7.878;2023-02-11T09:34:03;101131.00;;;3.60
68012;BMP180;54794;48.348;7.878;2023-02-11T09:36:35;101134.00;;;3.70
68012;BMP180;54794;48.348;7.878;2023-02-11T09:39:07;101137.00;;;3.80
68012;BMP180;54794;48.348;7.878;2023-02-11T09:44:51;101138.00;;;3.60
68012;BMP180;54794;48.348;7.878;2023-02-11T09:47:32;101132.00;;;3.80
68012;BMP180;54794;48.348;7.878;2023-02-11T09:50:10;101127.00;;;3.80
68012;BMP180;54794;48.348;7.878;2023-02-11T09:53:00;101121.00;;;4.10
68012;BMP180;54794;48.348;7.878;2023-02-11T09:55:35;101130.00;;;4.20
68012;BMP180;54794;48.348;7.878;2023-02-11T09:58:27;101131.00;;;4.10
68012;BMP180;54794;48.348;7.878;2023-02-11T10:06:56;101121.00;;;4.40
68012;BMP180;54794;48.348;7.878;2023-02-11T10:22:36;101117.00;;;5.00
68012;BMP180;54794;48.348;7.878;2023-02-11T10:25:19;101115.00;;;5.20
68012;BMP180;54794;48.348;7.878;2023-02-11T10:27:47;101111.00;;;5.30
68012;BMP180;54794;48.348;7.878;2023-02-11T10:30:36;101107.00;;;5.20
68012;BMP180;54794;48.348;7.878;2023-02-11T10:33:31;101115.00;;;5.20
68012;BMP180;54794;48.348;7.878;2023-02-11T10:36:03;101113.00;;;5.30
68012;BMP180;54794;48.348;7.878;2023-02-11T10:38:30;101113.00;;;5.10
68012;BMP180;54794;48.348;7.878;2023-02-11T10:40:59;101117.00;;;5.40
68012;BMP180;54794;48.348;7.878;2023-02-11T10:43:29;101108.00;;;5.60
68012;BMP180;54794;48.348;7.878;2023-02-11T10:45:59;101107.00;;;5.70
68012;BMP180;54794;48.348;7.878;2023-02-11T10:48:48;101106.00;;;5.50
68012;BMP180;54794;48.348;7.878;2023-02-11T10:51:22;101101.00;;;5.50
68012;BMP180;54794;48.348;7.878;2023-02-11T10:54:17;101099.00;;;5.60
68012;BMP180;54794;48.348;7.878;2023-02-11T10:56:49;101093.00;;;5.60
68012;BMP180;54794;48.348;7.878;2023-02-11T10:59:33;101095.00;;;5.80
68012;BMP180;54794;48.348;7.878;2023-02-11T11:02:30;101089.00;;;5.90
68012;BMP180;54794;48.348;7.878;2023-02-11T11:05:14;101084.00;;;5.80
68012;BMP180;54794;48.348;7.878;2023-02-11T11:07:57;101073.00;;;6.10
68012;BMP180;54794;48.348;7.878;2023-02-11T11:10:46;101068.00;;;6.20
68012;BMP180;54794;48.348;7.878;2023-02-11T11:13:36;101059.00;;;6.30
68012;BMP180;54794;48.348;7.878;2023-02-11T11:18:41;101058.00;;;6.20
68012;BMP180;54794;48.348;7.878;2023-02-11T11:21:47;101039.00;;;6.20
68012;BMP180;54794;48.348;7.878;2023-02-11T11:24:27;101048.00;;;6.40
68012;BMP180;54794;48.348;7.878;2023-02-11T11:27:01;101030.00;;;6.40
68012;BMP180;54794;48.348;7.878;2023-02-11T11:29:42;101021.00;;;6.40
68012;BMP180;54794;48.348;7.878;2023-02-11T11:32:20;101017.00;;;6.50
68012;BMP180;54794;48.348;7.878;2023-02-11T11:34:54;101006.00;;;6.60
68012;BMP180;54794;48.348;7.878;2023-02-11T11:37:34;101003.00;;;6.50
68012;BMP180;54794;48.348;7.878;2023-02-11T11:40:23;101012.00;;;6.60
68012;BMP180;54794;48.348;7.878;2023-02-11T11:43:16;101008.00;;;6.60
68012;BMP180;54794;48.348;7.878;2023-02-11T11:45:57;101007.00;;;6.70
68012;BMP180;54794;48.348;7.878;2023-02-11T11:48:45;101010.00;;;6.90
68012;BMP180;54794;48.348;7.878;2023-02-11T11:51:15;100996.00;;;7.10
68012;BMP180;54794;48.348;7.878;2023-02-11T11:53:57;100999.00;;;7.20
68012;BMP180;54794;48.348;7.878;2023-02-11T11:56:33;100989.00;;;7.30
68012;BMP180;54794;48.348;7.878;2023-02-11T11:59:10;100989.00;;;7.00
68012;BMP180;54794;48.348;7.878;2023-02-11T12:08:01;100980.00;;;7.40
68012;BMP180;54794;48.348;7.878;2023-02-11T12:10:37;100974.00;;;7.60
68012;BMP180;54794;48.348;7.878;2023-02-11T12:17:13;100983.00;;;7.50
68012;BMP180;54794;48.348;7.878;2023-02-11T12:20:11;100982.00;;;7.70
68012;BMP180;54794;48.348;7.878;2023-02-11T12:25:44;100978.00;;;7.90
68012;BMP180;54794;48.348;7.878;2023-02-11T12:39:39;100981.00;;;8.10
68012;BMP180;54794;48.348;7.878;2023-02-11T12:54:30;100968.00;;;8.50
68012;BMP180;54794;48.348;7.878;2023-02-11T12:57:28;100980.00;;;8.60
68012;BMP180;54794;48.348;7.878;2023-02-11T13:00:16;100962.00;;;8.70
68012;BMP180;54794;48.348;7.878;2023-02-11T13:05:32;100951.00;;;8.80
68012;BMP180;54794;48.348;7.878;2023-02-11T13:08:21;100956.00;;;8.60
68012;BMP180;54794;48.348;7.878;2023-02-11T13:11:01;100950.00;;;8.80
68012;BMP180;54794;48.348;7.878;2023-02-11T13:13:41;100947.00;;;9.10
68012;BMP180;54794;48.348;7.878;2023-02-11T13:16:39;100942.00;;;9.20
68012;BMP180;54794;48.348;7.878;2023-02-11T13:19:39;100944.00;;;9.40
68012;BMP180;54794;48.348;7.878;2023-02-11T13:22:18;100940.00;;;9.50
68012;BMP180;54794;48.348;7.878;2023-02-11T13:28:17;100935.00;;;9.60
68012;BMP180;54794;48.348;7.878;2023-02-11T13:30:46;100951.00;;;9.80
68012;BMP180;54794;48.348;7.878;2023-02-11T13:33:29;100936.00;;;9.60
68012;BMP180;54794;48.348;7.878;2023-02-11T13:38:28;100934.00;;;9.80
68012;BMP180;54794;48.348;7.878;2023-02-11T13:41:19;100929.00;;;9.80
68012;BMP180;54794;48.348;7.878;2023-02-11T13:44:21;100931.00;;;9.90
68012;BMP180;54794;48.348;7.878;2023-02-11T13:46:55;100927.00;;;9.80
68012;BMP180;54794;48.348;7.878;2023-02-11T13:49:49;100919.00;;;10.00
68012;BMP180;54794;48.348;7.878;2023-02-11T13:52:31;100930.00;;;10.20
68012;BMP180;54794;48.348;7.878;2023-02-11T13:55:19;100918.00;;;10.20
68012;BMP180;54794;48.348;7.878;2023-02-11T14:12:33;100921.00;;;10.60
68012;BMP180;54794;48.348;7.878;2023-02-11T14:15:18;100909.00;;;10.60
68012;BMP180;54794;48.348;7.878;2023-02-11T14:17:45;100914.00;;;10.50
68012;BMP180;54794;48.348;7.878;2023-02-11T14:20:38;100919.00;;;10.70
68012;BMP180;54794;48.348;7.878;2023-02-11T14:23:23;100908.00;;;10.90
68012;BMP180;54794;48.348;7.878;2023-02-11T14:35:30;100911.00;;;11.00
68012;BMP180;54794;48.348;7.878;2023-02-11T14:41:19;100902.00;;;10.80
68012;BMP180;54794;48.348;7.878;2023-02-11T14:43:58;100908.00;;;10.90
68012;BMP180;54794;48.348;7.878;2023-02-11T14:46:28;100898.00;;;10.90
68012;BMP180;54794;48.348;7.878;2023-02-11T14:49:04;100898.00;;;11.00
68012;BMP180;54794;48.348;7.878;2023-02-11T14:51:37;100902.00;;;10.90
68012;BMP180;54794;48.348;7.878;2023-02-11T14:54:13;100903.00;;;11.10
68012;BMP180;54794;48.348;7.878;2023-02-11T14:56:42;100895.00;;;11.10
68012;BMP180;54794;48.348;7.878;2023-02-11T14:59:20;100904.00;;;11.20
68012;BMP180;54794;48.348;7.878;2023-02-11T15:01:52;100901.00;;;11.10
68012;BMP180;54794;48.348;7.878;2023-02-11T15:04:26;100899.00;;;11.30
68012;BMP180;54794;48.348;7.878;2023-02-11T15:06:54;100895.00;;;11.20
68012;BMP180;54794;48.348;7.878;2023-02-11T15:09:45;100899.00;;;11.30
68012;BMP180;54794;48.348;7.878;2023-02-11T15:12:25;100899.00;;;11.40
68012;BMP180;54794;48.348;7.878;2023-02-11T15:14:57;100899.00;;;11.20
68012;BMP180;54794;48.348;7.878;2023-02-11T15:17:29;100904.00;;;11.20
68012;BMP180;54794;48.348;7.878;2023-02-11T15:20:00;100899.00;;;11.00
68012;BMP180;54794;48.348;7.878;2023-02-11T15:22:32;100899.00;;;10.90
68012;BMP180;54794;48.348;7.878;2023-02-11T15:25:11;100903.00;;;10.90
68012;BMP180;54794;48.348;7.878;2023-02-11T15:27:47;100899.00;;;11.00
68012;BMP180;54794;48.348;7.878;2023-02-11T15:32:55;100894.00;;;10.70
68012;BMP180;54794;48.348;7.878;2023-02-11T15:35:30;100916.00;;;10.80
68012;BMP180;54794;48.348;7.878;2023-02-11T15:37:58;100919.00;;;10.50
68012;BMP180;54794;48.348;7.878;2023-02-11T15:40:30;100913.00;;;10.60
68012;BMP180;54794;48.348;7.878;2023-02-11T15:43:02;100911.00;;;10.20
68012;BMP180;54794;48.348;7.878;2023-02-11T15:48:34;100923.00;;;10.20
68012;BMP180;54794;48.348;7.878;2023-02-11T15:53:40;100914.00;;;10.20
68012;BMP180;54794;48.348;7.878;2023-02-11T15:56:24;100920.00;;;10.10
68012;BMP180;54794;48.348;7.878;2023-02-11T15:58:54;100926.00;;;10.00
68012;BMP180;54794;48.348;7.878;2023-02-11T16:01:32;100925.00;;;9.90
68012;BMP180;54794;48.348;7.878;2023-02-11T16:04:02;100929.00;;;9.90
68012;BMP180;54794;48.348;7.878;2023-02-11T16:06:41;100934.00;;;9.70
68012;BMP180;54794;48.348;7.878;2023-02-11T16:11:55;100930.00;;;9.70
68012;BMP180;54794;48.348;7.878;2023-02-11T16:17:00;100933.00;;;9.00
68012;BMP180;54794;48.348;7.878;2023-02-11T16:19:29;100941.00;;;8.90
68012;BMP180;54794;48.348;7.878;2023-02-11T16:22:00;100937.00;;;8.80
68012;BMP180;54794;48.348;7.878;2023-02-11T16:24:32;100944.00;;;8.80
68012;BMP180;54794;48.348;7.878;2023-02-11T16:27:13;100946.00;;;9.00
68012;BMP180;54794;48.348;7.878;2023-02-11T16:29:46;100950.00;;;8.70
68012;BMP180;54794;48.348;7.878;2023-02-11T16:32:26;100959.00;;;8.80
68012;BMP180;54794;48.348;7.878;2023-02-11T16:34:56;100953.00;;;8.70
68012;BMP180;54794;48.348;7.878;2023-02-11T16:37:24;100962.00;;;8.50
68012;BMP180;54794;48.348;7.878;2023-02-11T16:39:55;100957.00;;;8.40
68012;BMP180;54794;48.348;7.878;2023-02-11T16:42:22;100959.00;;;8.40
68012;BMP180;54794;48.348;7.878;2023-02-11T16:44:50;100960.00;;;8.50
68012;BMP180;54794;48.348;7.878;2023-02-11T16:47:27;100969.00;;;8.50
68012;BMP180;54794;48.348;7.878;2023-02-11T16:49:55;100970.00;;;8.50
68012;BMP180;54794;48.348;7.878;2023-02-11T16:52:23;100970.00;;;8.30
68012;BMP180;54794;48.348;7.878;2023-02-11T16:54:50;100975.00;;;8.40